Time;durP1;ratioP1;P1;durP2;ratioP2;P2;SDS_P1;SDS_P2;PMS_P1;PMS_P2;Temp;Humidity;BMP_temperature;BMP_pressure;BME280_temperature;BME280_humidity;BME280_pressure;Samples;Min_cycle;Max_cycle;Signal;HPM_P1;HPM_P2
2023/07/09 00:00:18;;;;;;;8.88;3.90;;;;;;;;;;6272714;22;20007;-67
2023/07/09 00:02:46;;;;;;;7.50;4.15;;;;;;;;;;6273000;22;20310;-67
2023/07/09 00:05:17;;;;;;;10.30;4.05;;;;;;;;;;6272708;22;19999;-66
2023/07/09 00:07:44;;;;;;;6.45;3.90;;;;;;;;;;6272334;22;20069;-67
2023/07/09 00:10:20;;;;;;;13.52;4.75;;;;;;;;;;6273486;22;20063;-66
2023/07/09 00:12:47;;;;;;;8.73;3.90;;;;;;;;;;6273362;22;20008;-66
2023/07/09 00:15:18;;;;;;;7.38;4.43;;;;;;;;;;6271317;22;20095;-67
2023/07/09 00:17:44;;;;;;;10.48;4.93;;;;;;;;;;6273042;22;20337;-66
2023/07/09 00:20:18;;;;;;;11.88;4.28;;;;;;;;;;6272838;22;20010;-66
2023/07/09 00:22:54;;;;;;;10.32;4.38;;;;;;;;;;6270422;22;20437;-66
2023/07/09 00:25:20;;;;;;;6.80;4.38;;;;;;;;;;6271969;22;20008;-67
2023/07/09 00:27:49;;;;;;;10.15;4.50;;;;;;;;;;6274104;22;20376;-66
2023/07/09 00:30:18;;;;;;;14.43;4.82;;;;;;;;;;6274454;22;20085;-67
2023/07/09 00:32:44;;;;;;;8.77;4.47;;;;;;;;;;6247064;22;20021;-68
2023/07/09 00:35:12;;;;;;;7.68;4.22;;;;;;;;;;6271213;22;20098;-68
2023/07/09 00:37:37;;;;;;;7.45;3.85;;;;;;;;;;6294481;22;20003;-68
2023/07/09 00:40:04;;;;;;;7.65;4.05;;;;;;;;;;6271075;22;20336;-68
2023/07/09 00:42:30;;;;;;;8.77;4.53;;;;;;;;;;6271139;22;20375;-68
2023/07/09 00:44:56;;;;;;;10.18;4.95;;;;;;;;;;6270956;22;20026;-68
2023/07/09 00:47:34;;;;;;;7.00;4.05;;;;;;;;;;6268978;22;20011;-68
2023/07/09 00:50:09;;;;;;;10.05;4.03;;;;;;;;;;6272551;22;20084;-68
2023/07/09 00:52:51;;;;;;;8.70;4.50;;;;;;;;;;6270796;22;20011;-68
2023/07/09 00:55:20;;;;;;;8.23;4.57;;;;;;;;;;6268887;22;20019;-68
2023/07/09 00:57:55;;;;;;;9.25;4.13;;;;;;;;;;6268575;22;20031;-68
2023/07/09 01:00:28;;;;;;;7.55;3.97;;;;;;;;;;6268660;22;20073;-68
2023/07/09 01:02:55;;;;;;;12.20;4.40;;;;;;;;;;6270221;22;20062;-68
2023/07/09 01:05:21;;;;;;;7.90;3.70;;;;;;;;;;6268442;22;20619;-68
2023/07/09 01:07:48;;;;;;;7.50;4.00;;;;;;;;;;6270820;22;20015;-68
2023/07/09 01:10:15;;;;;;;9.45;4.70;;;;;;;;;;6272019;22;20053;-68
2023/07/09 01:12:43;;;;;;;9.10;4.22;;;;;;;;;;6246983;22;20065;-68
2023/07/09 01:15:11;;;;;;;7.63;4.55;;;;;;;;;;6247047;22;20110;-68
2023/07/09 01:17:37;;;;;;;9.00;4.25;;;;;;;;;;6246880;22;20012;-68
2023/07/09 01:20:03;;;;;;;11.48;4.63;;;;;;;;;;6246838;22;20057;-68
2023/07/09 01:22:29;;;;;;;10.65;4.18;;;;;;;;;;6274538;22;20081;-68
2023/07/09 01:25:01;;;;;;;7.32;4.22;;;;;;;;;;6247180;22;20117;-68
2023/07/09 01:27:34;;;;;;;8.43;4.43;;;;;;;;;;6273752;22;20012;-68
2023/07/09 01:30:07;;;;;;;10.35;4.72;;;;;;;;;;6274685;22;20318;-68
2023/07/09 01:32:33;;;;;;;5.95;4.20;;;;;;;;;;6273955;22;20011;-68
2023/07/09 01:35:04;;;;;;;10.07;4.50;;;;;;;;;;6246992;22;20064;-68
2023/07/09 01:37:32;;;;;;;9.55;4.43;;;;;;;;;;6297972;22;20012;-68
2023/07/09 01:39:58;;;;;;;9.85;4.55;;;;;;;;;;6247252;22;20007;-68
2023/07/09 01:42:26;;;;;;;8.50;4.32;;;;;;;;;;6272927;22;20011;-68
2023/07/09 01:44:53;;;;;;;7.45;4.43;;;;;;;;;;6249545;22;20018;-68
2023/07/09 01:47:19;;;;;;;8.88;4.18;;;;;;;;;;6273130;22;20095;-68
2023/07/09 01:49:48;;;;;;;6.03;3.85;;;;;;;;;;6247142;22;20000;-68
2023/07/09 01:52:16;;;;;;;6.90;3.97;;;;;;;;;;6272698;22;20016;-68
2023/07/09 01:54:49;;;;;;;11.00;4.43;;;;;;;;;;6273782;22;20004;-68
2023/07/09 01:57:24;;;;;;;9.38;4.72;;;;;;;;;;6273503;22;20018;-69
2023/07/09 01:59:56;;;;;;;7.75;4.40;;;;;;;;;;6272268;22;20050;-68
2023/07/09 02:02:22;;;;;;;;;;;;;;;;;;6272854;22;20034;-68
2023/07/09 02:04:50;;;;;;;8.00;4.40;;;;;;;;;;6246516;22;19938;-68
2023/07/09 02:07:17;;;;;;;8.32;4.00;;;;;;;;;;6297376;22;20018;-68
2023/07/09 02:09:43;;;;;;;9.23;4.25;;;;;;;;;;6246341;22;20491;-68
2023/07/09 02:12:11;;;;;;;5.15;4.07;;;;;;;;;;6273146;22;20016;-68
2023/07/09 02:14:37;;;;;;;8.18;4.50;;;;;;;;;;6245913;22;20011;-68
2023/07/09 02:17:03;;;;;;;8.43;3.97;;;;;;;;;;6272829;22;20452;-68
2023/07/09 02:19:29;;;;;;;6.25;4.18;;;;;;;;;;6246025;22;20031;-68
2023/07/09 02:21:56;;;;;;;6.25;3.90;;;;;;;;;;6271363;22;20044;-68
2023/07/09 02:24:26;;;;;;;8.95;4.22;;;;;;;;;;6273064;22;20532;-68
2023/07/09 02:26:53;;;;;;;7.30;4.13;;;;;;;;;;6272775;22;20046;-68
2023/07/09 02:29:20;;;;;;;5.72;4.10;;;;;;;;;;6272743;22;20000;-68
2023/07/09 02:31:49;;;;;;;7.43;4.43;;;;;;;;;;6272858;22;20007;-68
2023/07/09 02:34:15;;;;;;;5.85;3.80;;;;;;;;;;6245845;22;20274;-68
2023/07/09 02:36:42;;;;;;;5.93;3.97;;;;;;;;;;6270742;22;20015;-68
2023/07/09 02:39:13;;;;;;;7.38;4.13;;;;;;;;;;6245923;22;20773;-68
2023/07/09 02:41:39;;;;;;;6.45;4.22;;;;;;;;;;6271328;22;20457;-68
2023/07/09 02:44:06;;;;;;;6.80;3.85;;;;;;;;;;6246171;22;20019;-69
2023/07/09 02:46:32;;;;;;;8.50;4.00;;;;;;;;;;6278140;22;31418;-68
2023/07/09 02:48:58;;;;;;;5.65;3.88;;;;;;;;;;6302729;22;20110;-68
2023/07/09 02:51:27;;;;;;;6.07;4.10;;;;;;;;;;6299856;22;20057;-68
2023/07/09 02:53:54;;;;;;;7.20;4.10;;;;;;;;;;6302895;22;20031;-67
2023/07/09 02:56:20;;;;;;;7.03;3.75;;;;;;;;;;6274808;22;20046;-68
2023/07/09 02:58:46;;;;;;;6.30;3.78;;;;;;;;;;6276311;22;20010;-68
2023/07/09 03:01:12;;;;;;;13.57;4.30;;;;;;;;;;6302226;22;20068;-68
2023/07/09 03:03:40;;;;;;;10.70;3.92;;;;;;;;;;6276464;22;20023;-69
2023/07/09 03:06:06;;;;;;;5.75;3.72;;;;;;;;;;6303307;22;20004;-69
2023/07/09 03:08:32;;;;;;;6.80;4.05;;;;;;;;;;6303933;22;20011;-67
2023/07/09 03:10:58;;;;;;;6.13;3.70;;;;;;;;;;6276081;22;20088;-68
2023/07/09 03:13:24;;;;;;;6.93;3.75;;;;;;;;;;6276541;22;20010;-68
2023/07/09 03:15:57;;;;;;;5.75;4.10;;;;;;;;;;6276033;22;20259;-68
2023/07/09 03:18:23;;;;;;;6.13;3.78;;;;;;;;;;6301496;22;20015;-68
2023/07/09 03:20:49;;;;;;;5.43;3.80;;;;;;;;;;6276336;22;20060;-69
2023/07/09 03:23:15;;;;;;;6.50;3.78;;;;;;;;;;6302565;22;20019;-68
2023/07/09 03:25:44;;;;;;;5.15;3.45;;;;;;;;;;6303867;22;20441;-68
2023/07/09 03:28:11;;;;;;;9.85;3.72;;;;;;;;;;6303818;22;20007;-68
2023/07/09 03:30:45;;;;;;;8.18;3.85;;;;;;;;;;6303868;22;19999;-68
2023/07/09 03:33:12;;;;;;;7.72;3.78;;;;;;;;;;6301671;22;20087;-69
2023/07/09 03:35:39;;;;;;;7.28;3.97;;;;;;;;;;6275621;22;20042;-69
2023/07/09 03:38:05;;;;;;;12.23;4.40;;;;;;;;;;6303815;22;20084;-68
2023/07/09 03:40:31;;;;;;;9.68;4.28;;;;;;;;;;6304344;22;20003;-68
2023/07/09 03:42:56;;;;;;;6.70;4.32;;;;;;;;;;6305854;22;20011;-68
2023/07/09 03:45:23;;;;;;;6.55;3.80;;;;;;;;;;6304130;22;20003;-68
2023/07/09 03:47:49;;;;;;;6.68;3.13;;;;;;;;;;6305464;22;20440;-69
2023/07/09 03:50:15;;;;;;;7.93;3.78;;;;;;;;;;6306364;22;20005;-68
2023/07/09 03:52:41;;;;;;;8.30;4.00;;;;;;;;;;6309704;22;20011;-68
2023/07/09 03:55:08;;;;;;;9.40;3.97;;;;;;;;;;6306297;22;20003;-68
2023/07/09 03:57:34;;;;;;;6.15;3.63;;;;;;;;;;6305370;22;20061;-69
2023/07/09 04:00:01;;;;;;;6.82;4.10;;;;;;;;;;6305879;22;20365;-68
2023/07/09 04:02:27;;;;;;;5.68;3.63;;;;;;;;;;6305930;22;20003;-69
2023/07/09 04:04:53;;;;;;;5.97;4.00;;;;;;;;;;6305953;22;20014;-68
2023/07/09 04:07:19;;;;;;;6.95;3.83;;;;;;;;;;6305538;22;20437;-68
2023/07/09 04:09:45;;;;;;;6.28;3.60;;;;;;;;;;6305502;22;20010;-68
2023/07/09 04:12:11;;;;;;;7.80;3.47;;;;;;;;;;6305246;22;20011;-68
2023/07/09 04:14:36;;;;;;;8.68;3.88;;;;;;;;;;6305181;22;20008;-68
2023/07/09 04:17:03;;;;;;;7.75;3.80;;;;;;;;;;6305322;22;20023;-68
2023/07/09 04:19:29;;;;;;;6.07;3.53;;;;;;;;;;6305286;22;20003;-68
2023/07/09 04:21:55;;;;;;;7.82;3.88;;;;;;;;;;6305743;22;20094;-68
2023/07/09 04:24:21;;;;;;;6.95;3.60;;;;;;;;;;6305352;22;20024;-68
2023/07/09 04:26:47;;;;;;;7.90;3.88;;;;;;;;;;6305176;22;20509;-69
2023/07/09 04:29:13;;;;;;;6.93;3.90;;;;;;;;;;6305221;22;20035;-68
2023/07/09 04:31:40;;;;;;;10.40;3.90;;;;;;;;;;6305222;22;20018;-69
2023/07/09 04:34:06;;;;;;;9.90;3.95;;;;;;;;;;6305120;22;20006;-69
2023/07/09 04:36:32;;;;;;;8.38;3.97;;;;;;;;;;6305347;22;20433;-69
2023/07/09 04:38:58;;;;;;;10.27;4.00;;;;;;;;;;6277890;22;20078;-69
2023/07/09 04:41:24;;;;;;;10.52;4.88;;;;;;;;;;6305310;22;20012;-68
2023/07/09 04:43:50;;;;;;;11.18;4.15;;;;;;;;;;6305075;22;20000;-68
2023/07/09 04:46:16;;;;;;;15.60;4.35;;;;;;;;;;6305278;22;20011;-68
2023/07/09 04:48:42;;;;;;;12.02;3.95;;;;;;;;;;6307618;22;20333;-69
2023/07/09 04:51:08;;;;;;;11.27;3.90;;;;;;;;;;6307287;22;20094;-69
2023/07/09 04:53:34;;;;;;;11.48;4.03;;;;;;;;;;6307873;22;20007;-69
2023/07/09 04:56:02;;;;;;;12.68;4.32;;;;;;;;;;6307470;22;20435;-69
2023/07/09 04:58:29;;;;;;;11.52;4.30;;;;;;;;;;6307750;22;20006;-69
2023/07/09 05:00:59;;;;;;;15.63;3.90;;;;;;;;;;6306854;22;20011;-68
2023/07/09 05:03:25;;;;;;;8.00;4.13;;;;;;;;;;6307769;22;20056;-69
2023/07/09 05:05:51;;;;;;;10.95;4.18;;;;;;;;;;6307617;22;20061;-68
2023/07/09 05:08:17;;;;;;;17.88;4.18;;;;;;;;;;6306954;22;20278;-69
2023/07/09 05:10:45;;;;;;;10.88;4.15;;;;;;;;;;6306867;22;20085;-69
2023/07/09 05:13:11;;;;;;;6.93;3.65;;;;;;;;;;6306964;22;20490;-68
2023/07/09 05:15:41;;;;;;;12.60;4.18;;;;;;;;;;6306958;22;20082;-68
2023/07/09 05:18:07;;;;;;;10.40;3.70;;;;;;;;;;6279468;22;20007;-68
2023/07/09 05:20:34;;;;;;;7.28;3.88;;;;;;;;;;6306967;22;20003;-68
2023/07/09 05:23:00;;;;;;;10.60;4.55;;;;;;;;;;6305836;22;20026;-68
2023/07/09 05:25:26;;;;;;;11.55;4.78;;;;;;;;;;6279747;22;20079;-68
2023/07/09 05:27:51;;;;;;;13.35;4.18;;;;;;;;;;6306802;22;20084;-69
2023/07/09 05:30:18;;;;;;;13.93;4.70;;;;;;;;;;6306648;22;20007;-69
2023/07/09 05:32:44;;;;;;;10.75;4.22;;;;;;;;;;6307208;22;19999;-68
2023/07/09 05:35:10;;;;;;;10.15;4.00;;;;;;;;;;6306866;22;20512;-68
2023/07/09 05:37:36;;;;;;;8.05;3.95;;;;;;;;;;6306198;22;20011;-68
2023/07/09 05:40:05;;;;;;;12.43;4.20;;;;;;;;;;6307200;22;20070;-68
2023/07/09 05:42:31;;;;;;;7.35;4.05;;;;;;;;;;6279225;22;20051;-67
2023/07/09 05:44:58;;;;;;;10.65;3.38;;;;;;;;;;6306726;22;20017;-69
2023/07/09 05:47:25;;;;;;;6.03;3.30;;;;;;;;;;6306345;22;20010;-69
2023/07/09 05:49:50;;;;;;;7.28;3.53;;;;;;;;;;6306625;22;20013;-69
2023/07/09 05:52:17;;;;;;;10.52;3.60;;;;;;;;;;6307019;22;20078;-68
2023/07/09 05:54:44;;;;;;;5.90;3.65;;;;;;;;;;6307039;22;20053;-68
2023/07/09 05:57:10;;;;;;;5.50;3.20;;;;;;;;;;6308194;22;19995;-69
2023/07/09 05:59:36;;;;;;;6.43;3.35;;;;;;;;;;6309085;22;20124;-68
2023/07/09 06:02:03;;;;;;;5.18;3.33;;;;;;;;;;6307632;22;20023;-68
2023/07/09 06:04:30;;;;;;;5.80;3.65;;;;;;;;;;6306617;22;20056;-68
2023/07/09 06:06:56;;;;;;;5.60;3.10;;;;;;;;;;6306796;22;20078;-69
2023/07/09 06:09:23;;;;;;;6.28;3.40;;;;;;;;;;6306791;22;20082;-67
2023/07/09 06:11:49;;;;;;;10.65;3.88;;;;;;;;;;6307031;22;20124;-68
2023/07/09 06:14:16;;;;;;;5.90;3.05;;;;;;;;;;6307458;22;20003;-69
2023/07/09 06:16:43;;;;;;;9.43;3.55;;;;;;;;;;6307131;22;20003;-67
2023/07/09 06:19:09;;;;;;;6.75;3.17;;;;;;;;;;6307650;22;20013;-67
2023/07/09 06:21:35;;;;;;;7.10;3.05;;;;;;;;;;6307262;22;20137;-68
2023/07/09 06:24:01;;;;;;;6.57;3.60;;;;;;;;;;6306925;22;20039;-67
2023/07/09 06:26:27;;;;;;;6.20;3.33;;;;;;;;;;6307133;22;20006;-68
2023/07/09 06:28:53;;;;;;;7.90;3.30;;;;;;;;;;6307172;22;20003;-68
2023/07/09 06:31:20;;;;;;;6.60;3.22;;;;;;;;;;6306924;22;20368;-68
2023/07/09 06:33:47;;;;;;;6.00;2.92;;;;;;;;;;6306891;22;20007;-68
2023/07/09 06:36:13;;;;;;;8.55;3.45;;;;;;;;;;6306953;22;20003;-68
2023/07/09 06:38:40;;;;;;;5.70;3.42;;;;;;;;;;6307220;22;20314;-67
2023/07/09 06:41:06;;;;;;;5.63;3.05;;;;;;;;;;6307173;22;20070;-68
2023/07/09 06:43:32;;;;;;;5.35;2.67;;;;;;;;;;6306639;22;20451;-68
2023/07/09 06:46:00;;;;;;;4.78;2.83;;;;;;;;;;6306709;22;19995;-68
2023/07/09 06:48:28;;;;;;;5.68;2.88;;;;;;;;;;6306620;22;20429;-67
2023/07/09 06:50:57;;;;;;;6.03;3.28;;;;;;;;;;6307300;22;19995;-68
2023/07/09 06:53:23;;;;;;;5.93;3.00;;;;;;;;;;6306776;22;20014;-68
2023/07/09 06:55:49;;;;;;;4.43;3.10;;;;;;;;;;6306341;22;20023;-68
2023/07/09 06:58:17;;;;;;;6.72;3.10;;;;;;;;;;6306697;22;20014;-68
2023/07/09 07:00:43;;;;;;;4.75;2.83;;;;;;;;;;6306695;22;20006;-68
2023/07/09 07:03:09;;;;;;;4.63;2.80;;;;;;;;;;6307318;22;20008;-69
2023/07/09 07:05:34;;;;;;;5.15;2.75;;;;;;;;;;6306661;22;20048;-67
2023/07/09 07:08:01;;;;;;;4.80;3.10;;;;;;;;;;6306156;22;20012;-67
2023/07/09 07:10:27;;;;;;;6.10;3.20;;;;;;;;;;6306139;22;20003;-68
2023/07/09 07:12:55;;;;;;;5.20;2.90;;;;;;;;;;6306211;22;20003;-68
2023/07/09 07:15:21;;;;;;;5.57;3.00;;;;;;;;;;6278909;22;20004;-68
2023/07/09 07:17:48;;;;;;;8.32;3.00;;;;;;;;;;6306321;22;20014;-68
2023/07/09 07:20:15;;;;;;;4.75;2.85;;;;;;;;;;6306397;22;20091;-67
2023/07/09 07:22:41;;;;;;;7.47;3.05;;;;;;;;;;6278863;22;20038;-67
2023/07/09 07:25:07;;;;;;;9.40;2.95;;;;;;;;;;6305056;22;19999;-68
2023/07/09 07:27:34;;;;;;;4.90;2.90;;;;;;;;;;6305921;22;20011;-68
2023/07/09 07:30:01;;;;;;;7.40;3.58;;;;;;;;;;6306557;22;20003;-68
2023/07/09 07:32:27;;;;;;;4.65;3.00;;;;;;;;;;6304823;22;20007;-68
2023/07/09 07:34:54;;;;;;;3.75;2.60;;;;;;;;;;6306366;22;20044;-67
2023/07/09 07:37:21;;;;;;;4.85;3.00;;;;;;;;;;6306180;22;20010;-68
2023/07/09 07:39:47;;;;;;;8.10;3.22;;;;;;;;;;6306636;22;20378;-68
2023/07/09 07:42:13;;;;;;;5.05;2.80;;;;;;;;;;6306367;22;20011;-69
2023/07/09 07:44:39;;;;;;;4.97;2.97;;;;;;;;;;6306689;22;20006;-68
2023/07/09 07:47:05;;;;;;;4.65;2.65;;;;;;;;;;6306746;22;20038;-69
2023/07/09 07:49:31;;;;;;;7.03;3.08;;;;;;;;;;6306103;22;20022;-67
2023/07/09 07:51:57;;;;;;;5.80;3.13;;;;;;;;;;6306418;22;20007;-68
2023/07/09 07:54:23;;;;;;;3.55;2.53;;;;;;;;;;6306260;22;20013;-68
2023/07/09 07:56:49;;;;;;;6.20;2.88;;;;;;;;;;6306757;22;20011;-68
2023/07/09 07:59:15;;;;;;;7.40;2.80;;;;;;;;;;6306361;22;19999;-69
2023/07/09 08:01:41;;;;;;;5.40;3.33;;;;;;;;;;6305829;22;20010;-68
2023/07/09 08:04:06;;;;;;;8.23;3.10;;;;;;;;;;6281610;22;19999;-68
2023/07/09 08:06:32;;;;;;;4.63;2.75;;;;;;;;;;6309046;22;20015;-68
2023/07/09 08:08:58;;;;;;;6.15;2.90;;;;;;;;;;6304479;22;20003;-67
2023/07/09 08:11:24;;;;;;;4.43;2.90;;;;;;;;;;6305756;22;20011;-67
2023/07/09 08:13:50;;;;;;;5.55;2.92;;;;;;;;;;6306368;22;20022;-68
2023/07/09 08:16:17;;;;;;;4.60;2.80;;;;;;;;;;6306097;22;20337;-68
2023/07/09 08:18:42;;;;;;;5.40;2.83;;;;;;;;;;6305775;22;20105;-68
2023/07/09 08:21:09;;;;;;;4.75;2.50;;;;;;;;;;6305976;22;20015;-68
2023/07/09 08:23:35;;;;;;;7.25;3.00;;;;;;;;;;6306165;22;20003;-68
2023/07/09 08:26:02;;;;;;;5.65;3.33;;;;;;;;;;6306168;22;19999;-68
2023/07/09 08:28:30;;;;;;;5.65;2.75;;;;;;;;;;6306023;22;20082;-68
2023/07/09 08:30:56;;;;;;;7.97;3.00;;;;;;;;;;6306024;22;20007;-68
2023/07/09 08:33:23;;;;;;;6.55;3.45;;;;;;;;;;6305837;22;20079;-68
2023/07/09 08:35:50;;;;;;;4.10;3.00;;;;;;;;;;6305665;22;20014;-69
2023/07/09 08:38:16;;;;;;;4.85;3.03;;;;;;;;;;6305279;22;20058;-68
2023/07/09 08:40:59;;;;;;;5.50;2.83;;;;;;;;;;6305859;22;20018;-68
2023/07/09 08:43:39;;;;;;;4.95;3.03;;;;;;;;;;6305712;22;20037;-68
2023/07/09 08:46:24;;;;;;;5.07;3.15;;;;;;;;;;6305516;22;20065;-69
2023/07/09 08:48:50;;;;;;;6.60;3.03;;;;;;;;;;6305747;22;20007;-67
2023/07/09 08:51:33;;;;;;;7.35;3.00;;;;;;;;;;6305973;22;20346;-69
2023/07/09 08:54:00;;;;;;;9.35;3.47;;;;;;;;;;6306007;22;20016;-68
2023/07/09 08:56:28;;;;;;;4.93;2.92;;;;;;;;;;6305706;22;20125;-68
2023/07/09 08:58:58;;;;;;;7.68;3.30;;;;;;;;;;6305661;22;20011;-68
2023/07/09 09:01:39;;;;;;;5.53;2.88;;;;;;;;;;6305996;22;20007;-68
2023/07/09 09:04:18;;;;;;;5.65;3.30;;;;;;;;;;6305913;22;20003;-67
2023/07/09 09:06:50;;;;;;;5.72;2.88;;;;;;;;;;6305470;22;20014;-68
2023/07/09 09:09:38;;;;;;;8.50;3.15;;;;;;;;;;6330134;22;20019;-68
2023/07/09 09:12:19;;;;;;;6.82;2.80;;;;;;;;;;6305256;22;20298;-68
2023/07/09 09:14:56;;;;;;;5.40;3.20;;;;;;;;;;6305466;22;20014;-68
2023/07/09 09:17:26;;;;;;;6.38;3.30;;;;;;;;;;6305545;22;20056;-68
2023/07/09 09:19:55;;;;;;;5.43;3.10;;;;;;;;;;6305223;22;20042;-68
2023/07/09 09:22:25;;;;;;;5.78;3.10;;;;;;;;;;6305572;22;20009;-69
2023/07/09 09:25:30;;;;;;;4.35;2.72;;;;;;;;;;6329804;22;20341;-68
2023/07/09 09:27:56;;;;;;;4.43;2.95;;;;;;;;;;6305831;22;20384;-68
2023/07/09 09:30:24;;;;;;;5.40;2.97;;;;;;;;;;6305877;22;20007;-69
2023/07/09 09:32:56;;;;;;;6.00;3.20;;;;;;;;;;6306868;22;20018;-68
2023/07/09 09:35:36;;;;;;;7.27;3.33;;;;;;;;;;6307311;22;20033;-69
2023/07/09 09:38:02;;;;;;;4.88;3.00;;;;;;;;;;6307295;22;20007;-68
2023/07/09 09:40:34;;;;;;;6.25;2.97;;;;;;;;;;6307392;22;19999;-68
2023/07/09 09:43:02;;;;;;;5.40;3.38;;;;;;;;;;6307509;22;20082;-69
2023/07/09 09:45:38;;;;;;;6.20;2.75;;;;;;;;;;6306347;22;20048;-68
2023/07/09 09:48:18;;;;;;;6.18;3.25;;;;;;;;;;6307172;22;20014;-68
2023/07/09 09:50:46;;;;;;;4.68;3.13;;;;;;;;;;6307269;22;20007;-69
2023/07/09 09:53:18;;;;;;;5.10;3.30;;;;;;;;;;6306737;22;20060;-69
2023/07/09 09:55:45;;;;;;;5.40;3.17;;;;;;;;;;6307207;22;20008;-69
2023/07/09 09:58:14;;;;;;;6.88;3.70;;;;;;;;;;6306444;22;19995;-68
2023/07/09 10:00:40;;;;;;;5.57;3.13;;;;;;;;;;6307072;22;20026;-68
2023/07/09 10:03:06;;;;;;;5.65;3.20;;;;;;;;;;6306566;22;20340;-69
2023/07/09 10:05:56;;;;;;;7.55;3.00;;;;;;;;;;6306865;22;20015;-69
2023/07/09 10:08:44;;;;;;;4.55;2.97;;;;;;;;;;6306649;22;20094;-70
2023/07/09 10:11:24;;;;;;;4.75;3.17;;;;;;;;;;6306465;22;20023;-70
2023/07/09 10:13:55;;;;;;;3.92;2.80;;;;;;;;;;6308988;22;20015;-68
2023/07/09 10:16:45;;;;;;;5.15;2.90;;;;;;;;;;6306783;22;20011;-68
2023/07/09 10:19:36;;;;;;;6.43;3.28;;;;;;;;;;6306990;22;20082;-69
2023/07/09 10:22:25;;;;;;;5.22;3.00;;;;;;;;;;6306348;22;20391;-69
2023/07/09 10:25:47;;;;;;;4.18;2.85;;;;;;;;;;6234679;22;20017;-68
2023/07/09 10:28:31;;;;;;;4.28;3.08;;;;;;;;;;6181413;23;20009;-68
2023/07/09 10:31:24;;;;;;;5.05;3.30;;;;;;;;;;6182052;23;20075;-69
2023/07/09 10:34:04;;;;;;;4.57;2.72;;;;;;;;;;6278387;22;20007;-68
2023/07/09 10:37:08;;;;;;;5.85;2.90;;;;;;;;;;6306882;22;20015;-69
2023/07/09 10:39:40;;;;;;;6.53;3.10;;;;;;;;;;6238620;22;20015;-68
2023/07/09 10:42:14;;;;;;;5.78;3.13;;;;;;;;;;6307025;22;20337;-68
2023/07/09 10:44:42;;;;;;;5.90;3.10;;;;;;;;;;6306832;22;20007;-69
2023/07/09 10:47:28;;;;;;;7.75;3.80;;;;;;;;;;6307106;22;20366;-68
2023/07/09 10:49:56;;;;;;;6.90;3.40;;;;;;;;;;6307212;22;19999;-69
2023/07/09 10:52:29;;;;;;;4.60;3.00;;;;;;;;;;6306567;22;20440;-69
2023/07/09 10:55:16;;;;;;;7.95;3.22;;;;;;;;;;6307098;22;20318;-68
2023/07/09 10:58:05;;;;;;;5.30;3.42;;;;;;;;;;6306307;22;20018;-68
2023/07/09 11:00:37;;;;;;;4.10;2.90;;;;;;;;;;6306565;22;20463;-68
2023/07/09 11:03:30;;;;;;;5.43;2.92;;;;;;;;;;6306905;22;20011;-68
2023/07/09 11:05:56;;;;;;;5.90;3.00;;;;;;;;;;6306820;22;20401;-68
2023/07/09 11:08:35;;;;;;;4.75;2.97;;;;;;;;;;6306555;22;20010;-68
2023/07/09 11:11:10;;;;;;;5.47;3.08;;;;;;;;;;6306917;22;20091;-69
2023/07/09 11:14:00;;;;;;;4.82;3.13;;;;;;;;;;6307262;22;20011;-68
2023/07/09 11:16:32;;;;;;;5.05;3.58;;;;;;;;;;6306887;22;20457;-68
2023/07/09 11:19:06;;;;;;;6.07;2.85;;;;;;;;;;6307323;22;20018;-68
2023/07/09 11:21:32;;;;;;;5.28;2.85;;;;;;;;;;6307279;22;20386;-69
2023/07/09 11:24:02;;;;;;;6.65;3.03;;;;;;;;;;6306534;22;20049;-69
2023/07/09 11:26:33;;;;;;;7.40;3.28;;;;;;;;;;6306647;22;20011;-69
2023/07/09 11:29:05;;;;;;;5.55;3.05;;;;;;;;;;6306580;22;20015;-69
2023/07/09 11:31:38;;;;;;;5.20;3.33;;;;;;;;;;6307046;22;20008;-67
2023/07/09 11:34:14;;;;;;;6.45;3.28;;;;;;;;;;6306440;22;20012;-68
2023/07/09 11:36:55;;;;;;;5.25;3.30;;;;;;;;;;6306392;22;20031;-68
2023/07/09 11:39:43;;;;;;;6.60;2.95;;;;;;;;;;6306598;22;20007;-69
2023/07/09 11:42:50;;;;;;;6.18;3.70;;;;;;;;;;6306232;22;20039;-68
2023/07/09 11:45:21;;;;;;;7.50;3.15;;;;;;;;;;6306739;22;20007;-68
2023/07/09 11:48:04;;;;;;;5.93;3.07;;;;;;;;;;6306520;22;20130;-68
2023/07/09 11:50:45;;;;;;;4.45;2.90;;;;;;;;;;6306773;22;20053;-68
2023/07/09 11:53:17;;;;;;;8.70;2.97;;;;;;;;;;6306024;22;20030;-68
2023/07/09 11:55:46;;;;;;;5.10;3.10;;;;;;;;;;6306178;22;20189;-68
2023/07/09 11:58:16;;;;;;;4.85;3.38;;;;;;;;;;6306165;22;20031;-69
2023/07/09 12:00:55;;;;;;;4.80;3.08;;;;;;;;;;6306320;22;20011;-68
2023/07/09 12:03:26;;;;;;;6.57;3.20;;;;;;;;;;6306113;22;20038;-68
2023/07/09 12:05:54;;;;;;;5.53;3.45;;;;;;;;;;6305767;22;20041;-68
2023/07/09 12:08:30;;;;;;;4.85;2.70;;;;;;;;;;6306447;22;19999;-68
2023/07/09 12:10:56;;;;;;;4.90;3.10;;;;;;;;;;6306488;22;20004;-69
2023/07/09 12:13:22;;;;;;;5.15;2.88;;;;;;;;;;6306984;22;20086;-68
2023/07/09 12:15:47;;;;;;;5.35;3.45;;;;;;;;;;6307242;22;20012;-70
2023/07/09 12:18:15;;;;;;;4.20;2.90;;;;;;;;;;6309504;22;20074;-69
2023/07/09 12:20:47;;;;;;;4.55;3.08;;;;;;;;;;6306311;22;20011;-68
2023/07/09 12:23:32;;;;;;;5.82;3.70;;;;;;;;;;6305903;22;20014;-69
2023/07/09 12:26:03;;;;;;;5.65;2.97;;;;;;;;;;6306064;22;20429;-68
2023/07/09 12:28:30;;;;;;;7.95;3.00;;;;;;;;;;6306382;22;20041;-69
2023/07/09 12:30:56;;;;;;;5.80;3.50;;;;;;;;;;6278757;22;20010;-68
2023/07/09 12:33:24;;;;;;;7.05;3.42;;;;;;;;;;6306016;22;20068;-69
2023/07/09 12:35:59;;;;;;;3.83;2.70;;;;;;;;;;6306225;22;20049;-69
2023/07/09 12:38:28;;;;;;;5.00;2.75;;;;;;;;;;6299268;22;20007;-67
2023/07/09 12:40:55;;;;;;;4.82;3.10;;;;;;;;;;6306008;22;19999;-68
2023/07/09 12:43:31;;;;;;;6.38;3.20;;;;;;;;;;6305951;22;20314;-68
2023/07/09 12:45:59;;;;;;;6.13;3.20;;;;;;;;;;6305855;22;20007;-69
2023/07/09 12:48:27;;;;;;;4.45;3.00;;;;;;;;;;6305966;22;20000;-68
2023/07/09 12:50:57;;;;;;;4.03;2.85;;;;;;;;;;6305880;22;20011;-67
2023/07/09 12:53:26;;;;;;;4.88;2.95;;;;;;;;;;6306171;22;20384;-68
2023/07/09 12:55:56;;;;;;;5.13;3.03;;;;;;;;;;6305584;22;20046;-68
2023/07/09 12:58:27;;;;;;;4.45;2.75;;;;;;;;;;6305468;22;20015;-67
2023/07/09 13:00:55;;;;;;;4.68;3.03;;;;;;;;;;6305772;22;20011;-69
2023/07/09 13:03:28;;;;;;;4.45;2.90;;;;;;;;;;6305988;22;19999;-68
2023/07/09 13:05:57;;;;;;;4.32;2.95;;;;;;;;;;6305559;22;20009;-68
2023/07/09 13:08:28;;;;;;;3.92;2.80;;;;;;;;;;6306918;22;19995;-67
2023/07/09 13:10:54;;;;;;;4.53;2.55;;;;;;;;;;6307542;22;20014;-68
2023/07/09 13:13:22;;;;;;;5.75;3.10;;;;;;;;;;6307804;22;19999;-68
2023/07/09 13:16:01;;;;;;;6.35;3.08;;;;;;;;;;6307625;22;20426;-68
2023/07/09 13:18:28;;;;;;;5.25;3.15;;;;;;;;;;6307932;22;20007;-68
2023/07/09 13:20:56;;;;;;;6.15;2.85;;;;;;;;;;6307463;22;20009;-68
2023/07/09 13:23:28;;;;;;;6.03;3.00;;;;;;;;;;6307630;22;20007;-68
2023/07/09 13:25:56;;;;;;;5.00;3.00;;;;;;;;;;6307537;22;20053;-68
2023/07/09 13:28:26;;;;;;;6.50;3.00;;;;;;;;;;6307541;22;20381;-68
2023/07/09 13:30:57;;;;;;;3.75;2.42;;;;;;;;;;6307907;22;20101;-67
2023/07/09 13:33:23;;;;;;;6.32;3.38;;;;;;;;;;6307464;22;20014;-68
2023/07/09 13:35:52;;;;;;;4.95;3.20;;;;;;;;;;6307222;22;20444;-68
2023/07/09 13:38:20;;;;;;;5.13;3.40;;;;;;;;;;6307236;22;20081;-68
2023/07/09 13:40:53;;;;;;;5.07;2.70;;;;;;;;;;6307694;22;20011;-68
2023/07/09 13:43:43;;;;;;;5.53;2.40;;;;;;;;;;6307577;22;20004;-69
2023/07/09 13:46:10;;;;;;;4.07;3.03;;;;;;;;;;6307125;22;20008;-68
2023/07/09 13:48:37;;;;;;;4.38;2.80;;;;;;;;;;6307149;22;20066;-68
2023/07/09 13:51:20;;;;;;;5.32;2.80;;;;;;;;;;6307296;22;20015;-69
2023/07/09 13:53:48;;;;;;;4.78;2.60;;;;;;;;;;6307540;22;20046;-68
2023/07/09 13:56:14;;;;;;;4.68;2.90;;;;;;;;;;6306854;22;20421;-69
2023/07/09 13:58:40;;;;;;;5.15;2.88;;;;;;;;;;6307230;22;20015;-69
2023/07/09 14:01:13;;;;;;;5.78;2.90;;;;;;;;;;6307253;22;20007;-69
2023/07/09 14:03:38;;;;;;;;;;;;;;;;;;6307829;22;20013;-69
2023/07/09 14:06:04;;;;;;;5.78;2.80;;;;;;;;;;6306822;22;20005;-69
2023/07/09 14:08:30;;;;;;;11.18;2.90;;;;;;;;;;6307093;22;20011;-69
2023/07/09 14:10:56;;;;;;;5.53;2.75;;;;;;;;;;6305609;22;20036;-69
2023/07/09 14:13:23;;;;;;;5.65;2.90;;;;;;;;;;6307467;22;20042;-69
2023/07/09 14:15:49;;;;;;;5.15;2.97;;;;;;;;;;6307126;22;19999;-70
2023/07/09 14:18:18;;;;;;;4.22;2.63;;;;;;;;;;6306805;22;20007;-69
2023/07/09 14:20:44;;;;;;;4.57;2.85;;;;;;;;;;6307528;22;19999;-69
2023/07/09 14:23:15;;;;;;;7.88;3.20;;;;;;;;;;6314752;22;20030;-68
2023/07/09 14:25:43;;;;;;;6.10;2.80;;;;;;;;;;6304450;22;20154;-69
2023/07/09 14:28:14;;;;;;;5.20;2.60;;;;;;;;;;6305731;22;19999;-70
2023/07/09 14:30:41;;;;;;;4.67;2.80;;;;;;;;;;6305546;22;20041;-69
2023/07/09 14:36:59;;;;;;;6.15;3.15;;;;;;;;;;6302736;22;20133;-68
2023/07/09 14:39:27;;;;;;;4.35;2.88;;;;;;;;;;6279923;22;20106;-68
2023/07/09 14:41:53;;;;;;;4.85;2.83;;;;;;;;;;6274079;22;20011;-68
2023/07/09 14:44:22;;;;;;;4.95;2.95;;;;;;;;;;6273671;22;20446;-69
2023/07/09 14:46:49;;;;;;;5.13;2.90;;;;;;;;;;6273905;22;20035;-69
2023/07/09 14:49:16;;;;;;;4.57;2.88;;;;;;;;;;6273611;22;20014;-68
2023/07/09 14:51:42;;;;;;;6.80;3.20;;;;;;;;;;6274427;22;20627;-69
2023/07/09 14:54:26;;;;;;;6.18;2.60;;;;;;;;;;6273702;22;20496;-69
2023/07/09 14:56:53;;;;;;;6.13;2.83;;;;;;;;;;6274359;22;20031;-69
2023/07/09 14:59:20;;;;;;;5.13;2.70;;;;;;;;;;6274392;22;20011;-69
2023/07/09 15:01:46;;;;;;;3.75;2.45;;;;;;;;;;6274052;22;20109;-70